Strona główna
METAR-TAF:

METAR-TAF

Lotnisko :

Les Ajoncs

La Roche-sur-Yon, Francja

Szerokość geograficzna: 46-42N, Długość geograficzna: 001-23W, wysokość: 90 m

Aktualna obserwacja pogody

Raport powstał 33 minut temu, godzina 05:00 UTC
Wiatr 9 kt od północny wschód
Temperatura 15°C
Wilgotność 77%
Ciśnienie 1028 hPa
Widzialność 10 km lub więcej
Brak chmur poniżej 1500 m i brak chmur cumulonimbus

METAR: LFRI 280500Z AUTO 05009KT CAVOK 15/11 Q1028

czas: 07:33 (05:33 UTC)


TAF: brakujący

Obserwacja i prognoza pogody dla ponad 4000 lotnisk (raport METAR i TAF).

Dostępne stacje oznaczono żółtymi i czerwonymi punktami na mapie.

Najedź kursorem aby zobaczyć nazwę stacji.

Kliknij aby zobaczyć obserwacje i prognozy pogody.

Aby zmienić mapę: kliknij na zielony przycisk z czarnym krzyżykiem, aby powiększyć; na zielony przycisk z myślnikiem, aby pomniejszyć; na zielone strzałki, aby przejść do map sąsiednich.


METAR-TAF: